Time;durP1;ratioP1;P1;durP2;ratioP2;P2;SDS_P1;SDS_P2;PMS_P1;PMS_P2;Temp;Humidity;BMP_temperature;BMP_pressure;BME280_temperature;BME280_humidity;BME280_pressure;Samples;Min_cycle;Max_cycle;Signal;HPM_P1;HPM_P2
2022/10/24 00:00:53;;;;;;;9.90;2.20;;;;;;;;;;5114493;27;21250;-80
2022/10/24 00:03:19;;;;;;;10.68;2.50;;;;;;;;;;5112814;27;20076;-78
2022/10/24 00:05:46;;;;;;;7.82;2.45;;;;;;;;;;5097181;28;20053;-80
2022/10/24 00:08:13;;;;;;;11.25;2.83;;;;;;;;;;5111072;27;20112;-80
2022/10/24 00:10:42;;;;;;;16.52;3.08;;;;;;;;;;5108596;27;20052;-79
2022/10/24 00:13:09;;;;;;;9.35;2.38;;;;;;;;;;5098120;27;20101;-80
2022/10/24 00:15:36;;;;;;;6.82;2.70;;;;;;;;;;5097311;28;20056;-79
2022/10/24 00:18:02;;;;;;;7.88;2.80;;;;;;;;;;5089428;27;20043;-79
2022/10/24 00:20:29;;;;;;;6.30;2.45;;;;;;;;;;5111293;28;20060;-79
2022/10/24 00:22:55;;;;;;;8.32;2.53;;;;;;;;;;5111305;28;20048;-79
2022/10/24 00:25:21;;;;;;;9.80;2.40;;;;;;;;;;5100682;27;20061;-80
2022/10/24 00:27:48;;;;;;;10.75;2.72;;;;;;;;;;5093094;28;20060;-80
2022/10/24 00:30:14;;;;;;;7.35;2.28;;;;;;;;;;5113598;27;20051;-80
2022/10/24 00:32:40;;;;;;;9.02;2.70;;;;;;;;;;5094924;27;20114;-79
2022/10/24 00:35:07;;;;;;;10.82;2.92;;;;;;;;;;5102998;27;20059;-80
2022/10/24 00:37:33;;;;;;;9.15;2.65;;;;;;;;;;5091401;28;20049;-79
2022/10/24 00:40:00;;;;;;;7.40;2.70;;;;;;;;;;5093524;27;20074;-79
2022/10/24 00:42:26;;;;;;;7.82;2.83;;;;;;;;;;5115082;27;20055;-79
2022/10/24 00:44:52;;;;;;;7.68;2.13;;;;;;;;;;5105200;27;20173;-79
2022/10/24 00:47:20;;;;;;;9.85;2.50;;;;;;;;;;5111062;28;20056;-80
2022/10/24 00:49:52;;;;;;;5.57;2.17;;;;;;;;;;5110644;27;20074;-79
2022/10/24 00:52:21;;;;;;;12.15;3.33;;;;;;;;;;5100432;28;20063;-79
2022/10/24 00:54:48;;;;;;;9.77;2.50;;;;;;;;;;5093456;28;20056;-80
2022/10/24 00:57:18;;;;;;;11.75;2.67;;;;;;;;;;5089796;28;20051;-79
2022/10/24 00:59:45;;;;;;;;;;;;;;;;;;5093756;27;20052;-79
2022/10/24 01:02:11;;;;;;;10.40;2.60;;;;;;;;;;5129868;27;46627;-79
2022/10/24 01:04:38;;;;;;;6.80;2.50;;;;;;;;;;5119943;27;20045;-79
2022/10/24 01:07:04;;;;;;;6.45;2.38;;;;;;;;;;5092299;28;20059;-80
2022/10/24 01:09:30;;;;;;;8.77;2.40;;;;;;;;;;5106869;27;20515;-79
2022/10/24 01:12:15;;;;;;;7.95;2.00;;;;;;;;;;5123187;27;20046;-79
2022/10/24 01:14:54;;;;;;;6.72;2.17;;;;;;;;;;5117351;27;20896;-79
2022/10/24 01:17:39;;;;;;;15.70;2.67;;;;;;;;;;5131540;27;20051;-80
2022/10/24 01:20:21;;;;;;;8.77;2.22;;;;;;;;;;5117141;27;20052;-79
2022/10/24 01:23:11;;;;;;;7.53;2.08;;;;;;;;;;5112440;27;20052;-79
2022/10/24 01:25:37;;;;;;;12.63;2.40;;;;;;;;;;5087760;28;20041;-80
2022/10/24 01:28:26;;;;;;;8.82;2.10;;;;;;;;;;5091278;28;20431;-79
2022/10/24 01:30:57;;;;;;;6.95;2.38;;;;;;;;;;5109414;27;20506;-80
2022/10/24 01:33:24;;;;;;;6.88;1.90;;;;;;;;;;5095263;27;20524;-79
2022/10/24 01:36:06;;;;;;;7.03;2.13;;;;;;;;;;5105384;27;20442;-80
2022/10/24 01:38:36;;;;;;;5.97;1.75;;;;;;;;;;5106519;27;20048;-80
2022/10/24 01:41:05;;;;;;;9.43;1.80;;;;;;;;;;5136036;27;20055;-79
2022/10/24 01:43:34;;;;;;;6.20;2.08;;;;;;;;;;5111354;27;20061;-79
2022/10/24 01:46:02;;;;;;;8.50;1.83;;;;;;;;;;5105115;28;20881;-79
2022/10/24 01:48:32;;;;;;;10.88;1.92;;;;;;;;;;5108790;28;20105;-79
2022/10/24 01:50:59;;;;;;;11.75;2.42;;;;;;;;;;5110288;28;20052;-80
2022/10/24 01:53:28;;;;;;;10.45;2.17;;;;;;;;;;5115903;27;20150;-79
2022/10/24 01:55:55;;;;;;;6.10;1.98;;;;;;;;;;5112357;27;20533;-80
2022/10/24 01:58:21;;;;;;;10.15;2.10;;;;;;;;;;5109807;27;20062;-79
2022/10/24 02:00:49;;;;;;;7.60;2.00;;;;;;;;;;5100644;28;20494;-80
2022/10/24 02:03:26;;;;;;;6.90;1.90;;;;;;;;;;5109400;27;20541;-79
2022/10/24 02:05:54;;;;;;;11.70;2.42;;;;;;;;;;5104700;27;20052;-79
2022/10/24 02:08:25;;;;;;;8.00;2.10;;;;;;;;;;5089570;28;20052;-79
2022/10/24 02:10:53;;;;;;;6.18;2.03;;;;;;;;;;5125100;27;20133;-80
2022/10/24 02:13:28;;;;;;;6.43;1.60;;;;;;;;;;5132397;27;20055;-81
2022/10/24 02:15:57;;;;;;;8.25;2.08;;;;;;;;;;5109365;27;20618;-81
2022/10/24 02:18:24;;;;;;;5.85;1.98;;;;;;;;;;5108472;27;20055;-82
2022/10/24 02:21:08;;;;;;;8.45;2.55;;;;;;;;;;5108935;27;20518;-81
2022/10/24 02:23:37;;;;;;;10.00;2.08;;;;;;;;;;5090203;28;20159;-82
2022/10/24 02:26:08;;;;;;;7.85;1.95;;;;;;;;;;5108896;28;20123;-81
2022/10/24 02:28:37;;;;;;;6.32;1.90;;;;;;;;;;5108532;28;20503;-82
2022/10/24 02:31:07;;;;;;;5.85;2.10;;;;;;;;;;5110487;27;20056;-81
2022/10/24 02:33:35;;;;;;;8.30;2.10;;;;;;;;;;5102071;27;20052;-82
2022/10/24 02:36:02;;;;;;;5.85;2.00;;;;;;;;;;5110291;27;20891;-81
2022/10/24 02:38:33;;;;;;;8.55;2.00;;;;;;;;;;5112379;27;20060;-81
2022/10/24 02:41:01;;;;;;;8.98;2.10;;;;;;;;;;5113720;27;20059;-82
2022/10/24 02:43:28;;;;;;;9.38;1.70;;;;;;;;;;5095273;28;20053;-81
2022/10/24 02:45:55;;;;;;;6.00;1.80;;;;;;;;;;5098592;27;20063;-81
2022/10/24 02:48:25;;;;;;;5.03;1.85;;;;;;;;;;5099164;27;20601;-82
2022/10/24 02:50:51;;;;;;;;;;;;;;;;;;5112875;27;20048;-81
2022/10/24 02:53:19;;;;;;;6.85;1.98;;;;;;;;;;5117494;27;47123;-81
2022/10/24 02:55:45;;;;;;;8.32;1.70;;;;;;;;;;5115987;27;20048;-82
2022/10/24 02:58:12;;;;;;;9.63;2.08;;;;;;;;;;5107580;28;20511;-81
2022/10/24 03:00:38;;;;;;;5.38;1.65;;;;;;;;;;5091506;28;20474;-81
2022/10/24 03:03:04;;;;;;;7.95;1.77;;;;;;;;;;5105767;28;20083;-81
2022/10/24 03:05:31;;;;;;;9.13;1.90;;;;;;;;;;5111532;27;20048;-82
2022/10/24 03:07:57;;;;;;;5.47;2.05;;;;;;;;;;5107066;27;20104;-82
2022/10/24 03:10:23;;;;;;;7.50;2.20;;;;;;;;;;5090908;28;20056;-81
2022/10/24 03:12:50;;;;;;;8.07;2.05;;;;;;;;;;5099369;27;20761;-81
2022/10/24 03:15:16;;;;;;;6.00;2.00;;;;;;;;;;5111760;27;20058;-81
2022/10/24 03:17:42;;;;;;;7.07;1.65;;;;;;;;;;5134713;27;20051;-81
2022/10/24 03:20:09;;;;;;;7.22;1.85;;;;;;;;;;5132298;27;20148;-82
2022/10/24 03:22:36;;;;;;;5.82;1.42;;;;;;;;;;5112952;28;20056;-82
2022/10/24 03:25:02;;;;;;;9.40;1.90;;;;;;;;;;5105903;28;20052;-81
2022/10/24 03:27:29;;;;;;;8.18;1.90;;;;;;;;;;5098159;27;20530;-81
2022/10/24 03:29:55;;;;;;;10.20;1.52;;;;;;;;;;5105320;28;20052;-81
2022/10/24 03:32:21;;;;;;;4.15;1.48;;;;;;;;;;5109652;27;20060;-81
2022/10/24 03:34:48;;;;;;;8.57;1.73;;;;;;;;;;5099594;28;20059;-81
2022/10/24 03:37:14;;;;;;;5.72;2.00;;;;;;;;;;5112212;28;20055;-82
2022/10/24 03:39:40;;;;;;;10.00;1.88;;;;;;;;;;5113990;27;20055;-81
2022/10/24 03:42:06;;;;;;;9.57;1.50;;;;;;;;;;5111767;27;20059;-83
2022/10/24 03:44:33;;;;;;;7.43;1.50;;;;;;;;;;5110825;27;20061;-81
2022/10/24 03:46:59;;;;;;;10.38;1.42;;;;;;;;;;5110628;28;20063;-82
2022/10/24 03:49:25;;;;;;;4.95;1.50;;;;;;;;;;5107579;27;20056;-81
2022/10/24 03:51:52;;;;;;;7.10;1.75;;;;;;;;;;5092577;28;20052;-81
2022/10/24 03:54:18;;;;;;;5.05;1.20;;;;;;;;;;5093767;27;20106;-81
2022/10/24 03:56:46;;;;;;;4.90;1.20;;;;;;;;;;5091591;28;20056;-81
2022/10/24 03:59:13;;;;;;;8.32;1.45;;;;;;;;;;5098332;27;20052;-81
2022/10/24 04:01:39;;;;;;;7.13;1.30;;;;;;;;;;5111640;28;20056;-81
2022/10/24 04:04:06;;;;;;;6.40;1.30;;;;;;;;;;5106741;27;20055;-82
2022/10/24 04:06:32;;;;;;;6.70;1.52;;;;;;;;;;5110057;27;20052;-82
2022/10/24 04:09:02;;;;;;;5.40;1.00;;;;;;;;;;5117700;27;20541;-81
2022/10/24 04:11:28;;;;;;;5.53;1.40;;;;;;;;;;5108212;27;20165;-81
2022/10/24 04:13:55;;;;;;;10.73;1.50;;;;;;;;;;5103686;27;20047;-82
2022/10/24 04:16:22;;;;;;;10.80;1.38;;;;;;;;;;5103285;27;20056;-81
2022/10/24 04:18:49;;;;;;;7.32;1.35;;;;;;;;;;5098350;27;20048;-81
2022/10/24 04:21:16;;;;;;;5.43;1.05;;;;;;;;;;5102935;27;20052;-81
2022/10/24 04:23:47;;;;;;;6.57;1.48;;;;;;;;;;5099039;28;20048;-82
2022/10/24 04:26:14;;;;;;;6.18;1.13;;;;;;;;;;5111335;28;20052;-82
2022/10/24 04:28:40;;;;;;;7.75;1.05;;;;;;;;;;5116967;27;20541;-82
2022/10/24 04:31:07;;;;;;;6.68;0.90;;;;;;;;;;5117294;27;20535;-81
2022/10/24 04:33:35;;;;;;;11.25;1.92;;;;;;;;;;5092521;28;20839;-81
2022/10/24 04:36:01;;;;;;;7.68;1.40;;;;;;;;;;5091855;28;20118;-82
2022/10/24 04:38:27;;;;;;;7.82;1.13;;;;;;;;;;5099169;28;20584;-81
2022/10/24 04:40:58;;;;;;;4.93;1.13;;;;;;;;;;5112219;27;20132;-81
2022/10/24 04:43:25;;;;;;;8.63;1.25;;;;;;;;;;5092835;27;20064;-81
2022/10/24 04:45:51;;;;;;;8.57;1.30;;;;;;;;;;5090246;28;20049;-81
2022/10/24 04:48:18;;;;;;;11.68;1.23;;;;;;;;;;5102539;27;20126;-81
2022/10/24 04:50:45;;;;;;;5.05;1.10;;;;;;;;;;5111338;27;20569;-82
2022/10/24 04:53:11;;;;;;;7.00;1.15;;;;;;;;;;5105711;27;20506;-81
2022/10/24 04:55:37;;;;;;;6.55;1.15;;;;;;;;;;5106368;27;20055;-81
2022/10/24 04:58:04;;;;;;;6.50;1.00;;;;;;;;;;5111407;27;20052;-81
2022/10/24 05:00:30;;;;;;;5.70;1.05;;;;;;;;;;5109805;28;20533;-82
2022/10/24 05:02:57;;;;;;;4.88;1.00;;;;;;;;;;5106349;28;20079;-82
2022/10/24 05:05:24;;;;;;;7.13;1.10;;;;;;;;;;5110537;28;20052;-81
2022/10/24 05:07:51;;;;;;;6.30;1.00;;;;;;;;;;5106140;27;20048;-81
2022/10/24 05:10:17;;;;;;;5.35;1.02;;;;;;;;;;5094818;27;20106;-81
2022/10/24 05:12:43;;;;;;;6.78;1.20;;;;;;;;;;5092725;27;20110;-83
2022/10/24 05:15:10;;;;;;;5.75;1.30;;;;;;;;;;5111905;28;20927;-82
2022/10/24 05:17:37;;;;;;;5.43;1.40;;;;;;;;;;5111020;28;20561;-81
2022/10/24 05:20:03;;;;;;;5.82;1.20;;;;;;;;;;5111376;28;20507;-81
2022/10/24 05:22:30;;;;;;;8.40;1.27;;;;;;;;;;5113964;27;20108;-82
2022/10/24 05:24:56;;;;;;;7.72;2.67;;;;;;;;;;5112490;27;20056;-81
2022/10/24 05:27:23;;;;;;;5.35;1.02;;;;;;;;;;5110701;28;20109;-82
2022/10/24 05:29:50;;;;;;;5.30;1.20;;;;;;;;;;5111094;27;20095;-81
2022/10/24 05:32:16;;;;;;;5.65;1.30;;;;;;;;;;5096556;28;20041;-81
2022/10/24 05:34:43;;;;;;;6.35;1.30;;;;;;;;;;5090954;28;20526;-82
2022/10/24 05:37:09;;;;;;;7.35;1.42;;;;;;;;;;5098921;27;20130;-82
2022/10/24 05:39:35;;;;;;;5.03;1.40;;;;;;;;;;5130394;27;20055;-82
2022/10/24 05:42:02;;;;;;;10.43;1.35;;;;;;;;;;5103226;27;20468;-82
2022/10/24 05:44:28;;;;;;;6.95;1.10;;;;;;;;;;5108177;27;20055;-82
2022/10/24 05:46:55;;;;;;;8.63;1.58;;;;;;;;;;5106945;28;20045;-82
2022/10/24 05:49:22;;;;;;;6.90;1.27;;;;;;;;;;5109873;28;20711;-82
2022/10/24 05:51:48;;;;;;;8.35;1.30;;;;;;;;;;5103068;27;20064;-83
2022/10/24 05:54:15;;;;;;;6.75;1.30;;;;;;;;;;5106499;27;20083;-82
2022/10/24 05:56:41;;;;;;;7.75;1.08;;;;;;;;;;5089465;28;20056;-82
2022/10/24 05:59:08;;;;;;;7.05;1.40;;;;;;;;;;5101039;27;20052;-82
2022/10/24 06:01:34;;;;;;;5.78;1.10;;;;;;;;;;5103131;27;20049;-84
2022/10/24 06:04:00;;;;;;;6.50;1.10;;;;;;;;;;5110354;28;20052;-82
2022/10/24 06:06:27;;;;;;;10.40;1.42;;;;;;;;;;5099386;28;20059;-83
2022/10/24 06:08:53;;;;;;;6.55;1.05;;;;;;;;;;5097162;28;20055;-83
2022/10/24 06:11:19;;;;;;;6.88;1.00;;;;;;;;;;5116677;27;22258;-82
2022/10/24 06:13:48;;;;;;;4.72;1.20;;;;;;;;;;5105882;27;20056;-82
2022/10/24 06:16:14;;;;;;;8.05;1.40;;;;;;;;;;5104543;27;20060;-84
2022/10/24 06:18:41;;;;;;;6.80;1.48;;;;;;;;;;5113044;27;20059;-84
2022/10/24 06:21:08;;;;;;;8.23;1.67;;;;;;;;;;5104782;27;20082;-82
2022/10/24 06:23:34;;;;;;;6.88;0.98;;;;;;;;;;5111887;27;20523;-81
2022/10/24 06:26:01;;;;;;;10.48;1.40;;;;;;;;;;5105427;27;20849;-82
2022/10/24 06:28:27;;;;;;;9.40;1.20;;;;;;;;;;5113472;28;20056;-82
2022/10/24 06:30:53;;;;;;;5.88;1.20;;;;;;;;;;5100526;27;20052;-82
2022/10/24 06:33:20;;;;;;;7.22;1.50;;;;;;;;;;5099347;28;20052;-82
2022/10/24 06:35:46;;;;;;;8.45;1.52;;;;;;;;;;5113928;27;20133;-82
2022/10/24 06:38:12;;;;;;;7.88;1.48;;;;;;;;;;5097812;28;20037;-83
2022/10/24 06:40:41;;;;;;;8.88;1.30;;;;;;;;;;5094453;28;20048;-82
2022/10/24 06:43:07;;;;;;;6.82;1.58;;;;;;;;;;5093050;28;20092;-82
2022/10/24 06:45:35;;;;;;;8.45;1.55;;;;;;;;;;5103040;27;20091;-82
2022/10/24 06:48:02;;;;;;;8.50;1.50;;;;;;;;;;5114519;27;20052;-82
2022/10/24 06:50:28;;;;;;;8.00;1.40;;;;;;;;;;5106668;28;20086;-85
2022/10/24 06:52:54;;;;;;;7.35;1.08;;;;;;;;;;5105018;27;20064;-85
2022/10/24 06:55:21;;;;;;;10.77;1.15;;;;;;;;;;5094047;28;20064;-84
2022/10/24 06:57:47;;;;;;;9.40;1.63;;;;;;;;;;5102449;27;20055;-83
2022/10/24 07:00:13;;;;;;;8.18;1.10;;;;;;;;;;5112685;27;20060;-83
2022/10/24 07:02:40;;;;;;;8.80;1.10;;;;;;;;;;5113692;27;20049;-82
2022/10/24 07:05:11;;;;;;;6.10;1.23;;;;;;;;;;5111912;28;20067;-84
2022/10/24 07:07:39;;;;;;;7.65;1.20;;;;;;;;;;5111256;28;20106;-86
2022/10/24 07:10:05;;;;;;;6.63;1.17;;;;;;;;;;5112783;27;20414;-83
2022/10/24 07:12:32;;;;;;;10.07;1.65;;;;;;;;;;5112914;28;20054;-84
2022/10/24 07:14:58;;;;;;;8.82;1.33;;;;;;;;;;5096700;28;20471;-84
2022/10/24 07:17:24;;;;;;;10.70;1.50;;;;;;;;;;5092957;28;20869;-84
2022/10/24 07:19:52;;;;;;;7.82;1.65;;;;;;;;;;5098694;28;20068;-85
2022/10/24 07:22:18;;;;;;;8.85;1.45;;;;;;;;;;5116672;27;20056;-85
2022/10/24 07:24:51;;;;;;;10.70;1.30;;;;;;;;;;5097177;28;20048;-84
2022/10/24 07:27:21;;;;;;;8.75;1.83;;;;;;;;;;5109234;27;20050;-83
2022/10/24 07:29:47;;;;;;;10.85;1.30;;;;;;;;;;5101338;28;20056;-82
2022/10/24 07:32:14;;;;;;;6.63;1.33;;;;;;;;;;5111635;28;20044;-82
2022/10/24 07:34:40;;;;;;;9.15;1.77;;;;;;;;;;5118932;27;20052;-83
2022/10/24 07:37:06;;;;;;;6.28;1.27;;;;;;;;;;5117841;28;20059;-84
2022/10/24 07:39:33;;;;;;;9.90;1.38;;;;;;;;;;5116612;27;20060;-85
2022/10/24 07:41:59;;;;;;;9.50;1.35;;;;;;;;;;5121372;27;20136;-85
2022/10/24 07:44:25;;;;;;;12.27;1.70;;;;;;;;;;5130583;27;20041;-90
2022/10/24 07:46:52;;;;;;;9.55;1.77;;;;;;;;;;5122488;27;20051;-87
2022/10/24 07:49:18;;;;;;;10.07;1.60;;;;;;;;;;5116199;28;20051;-85
2022/10/24 07:51:46;;;;;;;8.18;1.20;;;;;;;;;;5113923;28;20066;-84
2022/10/24 07:54:12;;;;;;;8.07;1.10;;;;;;;;;;5105699;27;20507;-84
2022/10/24 07:56:44;;;;;;;8.35;1.40;;;;;;;;;;5095541;28;20430;-85
2022/10/24 07:59:11;;;;;;;7.45;1.60;;;;;;;;;;5110175;27;20044;-84
2022/10/24 08:01:57;;;;;;;6.32;1.10;;;;;;;;;;5111895;27;20564;-84
2022/10/24 08:04:23;;;;;;;11.02;1.67;;;;;;;;;;5101693;28;20500;-84
2022/10/24 08:06:50;;;;;;;8.75;1.45;;;;;;;;;;5098824;27;20048;-83
2022/10/24 08:09:17;;;;;;;5.18;1.08;;;;;;;;;;5105704;27;20153;-84
2022/10/24 08:11:43;;;;;;;7.93;1.17;;;;;;;;;;5103590;27;20912;-85
2022/10/24 08:14:09;;;;;;;8.00;1.25;;;;;;;;;;5108953;27;20059;-85
2022/10/24 08:16:37;;;;;;;7.72;1.58;;;;;;;;;;5101941;27;20525;-84
2022/10/24 08:19:03;;;;;;;6.47;1.25;;;;;;;;;;5097589;27;20541;-84
2022/10/24 08:21:30;;;;;;;5.38;1.10;;;;;;;;;;5105392;28;20591;-84
2022/10/24 08:23:56;;;;;;;8.85;1.20;;;;;;;;;;5093667;27;20057;-84
2022/10/24 08:26:23;;;;;;;6.10;1.23;;;;;;;;;;5094126;27;20510;-84
2022/10/24 08:28:50;;;;;;;7.68;1.52;;;;;;;;;;5092948;28;20048;-84
2022/10/24 08:31:18;;;;;;;8.48;1.10;;;;;;;;;;5108332;27;20876;-84
2022/10/24 08:33:44;;;;;;;7.07;1.17;;;;;;;;;;5092967;28;20059;-85
2022/10/24 08:36:17;;;;;;;8.63;1.15;;;;;;;;;;5103553;28;20096;-85
2022/10/24 08:38:46;;;;;;;4.70;1.00;;;;;;;;;;5088758;28;20052;-84
2022/10/24 08:41:19;;;;;;;6.07;1.30;;;;;;;;;;5098347;27;20051;-85
2022/10/24 08:43:45;;;;;;;8.45;1.50;;;;;;;;;;5097174;28;20060;-83
2022/10/24 08:46:30;;;;;;;10.63;1.20;;;;;;;;;;5091436;28;20063;-84
2022/10/24 08:49:02;;;;;;;6.97;1.40;;;;;;;;;;5092820;28;20504;-84
2022/10/24 08:51:40;;;;;;;11.30;2.45;;;;;;;;;;5107175;27;20529;-84
2022/10/24 08:54:11;;;;;;;11.13;1.55;;;;;;;;;;5096515;27;20067;-83
2022/10/24 08:56:37;;;;;;;;;;;;;;;;;;5124015;27;20084;-84
2022/10/24 08:59:04;;;;;;;9.15;2.72;;;;;;;;;;5108424;27;42196;-84
2022/10/24 09:01:31;;;;;;;8.77;1.35;;;;;;;;;;5092098;28;20060;-84
2022/10/24 09:04:02;;;;;;;6.93;1.10;;;;;;;;;;5100402;27;20052;-84
2022/10/24 09:06:30;;;;;;;7.90;1.13;;;;;;;;;;5105626;27;20443;-83
2022/10/24 09:08:58;;;;;;;10.43;1.65;;;;;;;;;;5109465;27;20058;-83
2022/10/24 09:11:43;;;;;;;8.13;1.50;;;;;;;;;;5130656;27;20051;-83
2022/10/24 09:14:17;;;;;;;9.27;1.20;;;;;;;;;;5115783;27;20059;-84
2022/10/24 09:16:47;;;;;;;5.65;1.17;;;;;;;;;;5109031;27;20052;-84
2022/10/24 09:19:15;;;;;;;5.32;1.30;;;;;;;;;;5096675;27;20052;-83
2022/10/24 09:21:43;;;;;;;8.65;1.63;;;;;;;;;;5093238;27;20525;-84
2022/10/24 09:24:16;;;;;;;8.60;1.10;;;;;;;;;;5129263;27;20505;-83
2022/10/24 09:26:44;;;;;;;6.20;1.35;;;;;;;;;;5131929;27;20058;-82
2022/10/24 09:29:10;;;;;;;8.50;0.98;;;;;;;;;;5110897;27;20043;-83
2022/10/24 09:31:37;;;;;;;8.88;1.33;;;;;;;;;;5113441;27;20058;-82
2022/10/24 09:34:05;;;;;;;4.70;1.00;;;;;;;;;;5111180;27;20056;-83
2022/10/24 09:36:31;;;;;;;10.07;1.17;;;;;;;;;;5111109;27;20059;-83
2022/10/24 09:39:18;;;;;;;6.43;1.00;;;;;;;;;;5105357;27;20960;-83
2022/10/24 09:41:45;;;;;;;9.95;1.13;;;;;;;;;;5111887;27;20962;-83
2022/10/24 09:44:40;;;;;;;7.65;1.30;;;;;;;;;;5115472;27;20044;-83
2022/10/24 09:47:18;;;;;;;4.60;1.10;;;;;;;;;;5120275;27;20063;-82
2022/10/24 09:49:46;;;;;;;6.05;1.13;;;;;;;;;;5105977;27;20056;-83
2022/10/24 09:52:26;;;;;;;5.55;1.10;;;;;;;;;;5097983;28;20517;-82
2022/10/24 09:55:11;;;;;;;6.53;1.15;;;;;;;;;;5109638;27;20052;-81
2022/10/24 09:57:40;;;;;;;6.85;1.30;;;;;;;;;;5103575;27;20062;-81
2022/10/24 10:00:18;;;;;;;8.40;1.42;;;;;;;;;;5111116;27;20044;-82
2022/10/24 10:03:05;;;;;;;7.82;1.48;;;;;;;;;;5095983;28;20045;-81
2022/10/24 10:06:00;;;;;;;6.80;1.25;;;;;;;;;;5110990;27;20059;-82
2022/10/24 10:08:31;;;;;;;8.63;1.70;;;;;;;;;;5076980;27;20067;-82
2022/10/24 10:11:11;;;;;;;12.82;1.60;;;;;;;;;;5114447;28;20079;-82
2022/10/24 10:13:48;;;;;;;8.77;1.47;;;;;;;;;;5109769;27;20053;-84
2022/10/24 10:16:31;;;;;;;8.32;1.13;;;;;;;;;;5102606;27;20056;-83
2022/10/24 10:19:12;;;;;;;11.48;1.27;;;;;;;;;;5108079;27;20063;-83
2022/10/24 10:21:54;;;;;;;6.13;1.27;;;;;;;;;;5102715;27;20051;-81
2022/10/24 10:24:40;;;;;;;9.45;1.30;;;;;;;;;;5109978;27;20052;-82
2022/10/24 10:27:25;;;;;;;6.80;1.17;;;;;;;;;;5111421;27;20059;-83
2022/10/24 10:30:11;;;;;;;6.45;1.30;;;;;;;;;;5103543;28;20056;-82
2022/10/24 10:32:42;;;;;;;9.55;1.35;;;;;;;;;;5119737;27;20052;-82
2022/10/24 10:35:19;;;;;;;7.53;1.10;;;;;;;;;;5112844;27;20056;-82
2022/10/24 10:38:10;;;;;;;5.93;1.40;;;;;;;;;;5115095;27;20110;-82
2022/10/24 10:40:38;;;;;;;3.67;0.85;;;;;;;;;;5125116;27;20068;-84
2022/10/24 10:43:26;;;;;;;12.02;1.63;;;;;;;;;;5098477;27;20063;-82
2022/10/24 10:46:06;;;;;;;10.88;1.65;;;;;;;;;;5123866;27;20048;-81
2022/10/24 10:48:39;;;;;;;7.55;1.30;;;;;;;;;;5106763;28;20063;-80
2022/10/24 10:51:14;;;;;;;6.47;1.48;;;;;;;;;;5114824;27;20048;-83
2022/10/24 10:53:50;;;;;;;7.63;1.48;;;;;;;;;;5103725;27;20510;-81
2022/10/24 10:56:16;;;;;;;6.05;1.50;;;;;;;;;;5108208;27;20033;-81
2022/10/24 10:59:06;;;;;;;8.93;1.17;;;;;;;;;;5119265;27;20044;-82
2022/10/24 11:01:56;;;;;;;9.68;1.40;;;;;;;;;;5118391;27;20044;-83
2022/10/24 11:05:03;;;;;;;7.90;1.40;;;;;;;;;;5110489;27;20058;-81
2022/10/24 11:07:37;;;;;;;8.18;1.42;;;;;;;;;;5108709;27;20063;-83
2022/10/24 11:10:08;;;;;;;6.72;1.30;;;;;;;;;;5091539;27;20044;-82
2022/10/24 11:12:38;;;;;;;11.07;3.08;;;;;;;;;;5102628;27;20087;-81
2022/10/24 11:15:31;;;;;;;5.80;1.10;;;;;;;;;;5106161;27;20061;-80
2022/10/24 11:18:00;;;;;;;4.63;1.25;;;;;;;;;;5091518;27;20053;-82
2022/10/24 11:20:31;;;;;;;5.65;1.30;;;;;;;;;;5113886;27;20055;-84
2022/10/24 11:22:57;;;;;;;;;;;;;;;;;;5103771;27;20053;-84
2022/10/24 11:25:33;;;;;;;9.35;1.33;;;;;;;;;;5110850;27;42234;-82
2022/10/24 11:28:03;;;;;;;8.02;1.20;;;;;;;;;;5098402;27;20098;-83
2022/10/24 11:30:42;;;;;;;9.80;1.50;;;;;;;;;;5114159;28;20522;-83
2022/10/24 11:33:13;;;;;;;7.53;1.52;;;;;;;;;;5110269;27;20079;-83
2022/10/24 11:35:51;;;;;;;4.00;1.25;;;;;;;;;;5120224;27;20525;-83
2022/10/24 11:38:19;;;;;;;9.68;1.90;;;;;;;;;;5104587;27;20052;-82
2022/10/24 11:40:48;;;;;;;6.70;1.42;;;;;;;;;;5102514;27;20067;-82
2022/10/24 11:43:29;;;;;;;8.70;1.42;;;;;;;;;;5111729;27;20135;-81
2022/10/24 11:46:19;;;;;;;7.35;1.60;;;;;;;;;;5111728;27;20044;-81
2022/10/24 11:48:54;;;;;;;8.60;1.70;;;;;;;;;;5092473;28;20135;-82
2022/10/24 11:51:23;;;;;;;7.05;1.55;;;;;;;;;;5098876;28;20056;-82
2022/10/24 11:54:01;;;;;;;7.22;1.40;;;;;;;;;;5100884;27;20052;-83
2022/10/24 11:56:39;;;;;;;6.03;1.55;;;;;;;;;;5104330;28;20531;-81
2022/10/24 11:59:10;;;;;;;5.40;1.40;;;;;;;;;;5111009;28;20054;-81
2022/10/24 12:01:46;;;;;;;8.52;1.48;;;;;;;;;;5110211;28;20047;-84
2022/10/24 12:04:31;;;;;;;6.15;1.40;;;;;;;;;;5108146;27;20064;-82
2022/10/24 12:07:03;;;;;;;6.80;1.50;;;;;;;;;;5091053;28;20053;-82
2022/10/24 12:09:39;;;;;;;8.82;1.40;;;;;;;;;;5100561;28;20493;-82
2022/10/24 12:12:22;;;;;;;7.57;1.30;;;;;;;;;;5110344;27;20056;-86
2022/10/24 12:14:48;;;;;;;10.02;1.60;;;;;;;;;;5091525;28;20046;-82
2022/10/24 12:17:21;;;;;;;9.02;1.60;;;;;;;;;;5092218;28;20082;-81
2022/10/24 12:19:48;;;;;;;8.00;1.23;;;;;;;;;;5090537;28;20052;-81
2022/10/24 12:22:22;;;;;;;7.55;1.40;;;;;;;;;;5106966;27;20106;-82
2022/10/24 12:25:00;;;;;;;6.88;1.88;;;;;;;;;;5091870;28;20060;-81
2022/10/24 12:27:49;;;;;;;3.72;1.30;;;;;;;;;;5090469;28;21286;-82
2022/10/24 12:30:17;;;;;;;6.00;1.55;;;;;;;;;;5092740;28;20067;-81
2022/10/24 12:32:45;;;;;;;8.50;1.50;;;;;;;;;;5095153;27;20083;-82
2022/10/24 12:35:32;;;;;;;7.57;1.48;;;;;;;;;;5110141;28;20156;-82
2022/10/24 12:38:00;;;;;;;9.65;1.35;;;;;;;;;;5100532;28;20503;-83
2022/10/24 12:40:45;;;;;;;5.07;1.48;;;;;;;;;;5091915;27;20052;-82
2022/10/24 12:43:27;;;;;;;10.20;1.25;;;;;;;;;;5113747;27;20058;-83
2022/10/24 12:45:54;;;;;;;5.80;1.48;;;;;;;;;;5098938;27;20055;-83
2022/10/24 12:48:27;;;;;;;7.45;1.30;;;;;;;;;;5101151;27;20763;-82
2022/10/24 12:51:06;;;;;;;6.80;1.40;;;;;;;;;;5105387;27;20040;-82
2022/10/24 12:53:33;;;;;;;5.05;1.17;;;;;;;;;;5107113;27;20056;-82
2022/10/24 12:55:59;;;;;;;5.57;1.50;;;;;;;;;;5105241;28;20743;-82
2022/10/24 12:58:30;;;;;;;4.15;1.40;;;;;;;;;;5094623;27;20052;-85
2022/10/24 13:01:09;;;;;;;3.30;1.10;;;;;;;;;;5093717;28;20055;-82
2022/10/24 13:03:52;;;;;;;5.80;1.35;;;;;;;;;;5091022;27;20053;-82
2022/10/24 13:06:22;;;;;;;3.70;1.40;;;;;;;;;;5103598;28;20797;-83
2022/10/24 13:08:59;;;;;;;11.13;1.65;;;;;;;;;;5111981;27;20079;-85
2022/10/24 13:11:38;;;;;;;9.07;1.70;;;;;;;;;;5103741;27;20059;-82
2022/10/24 13:14:10;;;;;;;7.15;1.90;;;;;;;;;;5108819;28;20052;-82
2022/10/24 13:16:41;;;;;;;6.07;1.50;;;;;;;;;;5094405;27;20064;-82
2022/10/24 13:19:21;;;;;;;6.93;1.90;;;;;;;;;;5089872;28;20052;-83
2022/10/24 13:21:49;;;;;;;7.35;2.08;;;;;;;;;;5094007;27;20059;-83
2022/10/24 13:24:15;;;;;;;10.45;3.15;;;;;;;;;;5092548;27;20047;-86
2022/10/24 13:26:43;;;;;;;7.32;1.90;;;;;;;;;;5101415;27;20052;-83
2022/10/24 13:29:14;;;;;;;7.05;1.80;;;;;;;;;;5106848;27;20565;-82
2022/10/24 13:31:44;;;;;;;10.27;2.17;;;;;;;;;;5100049;27;20044;-83
2022/10/24 13:34:13;;;;;;;12.70;2.47;;;;;;;;;;5092186;28;20515;-83
2022/10/24 13:36:40;;;;;;;9.02;2.70;;;;;;;;;;5094371;27;20048;-83
2022/10/24 13:39:10;;;;;;;9.20;2.15;;;;;;;;;;5090661;28;20948;-83
2022/10/24 13:41:42;;;;;;;9.40;2.50;;;;;;;;;;5095664;28;20056;-83
2022/10/24 13:44:13;;;;;;;6.80;2.47;;;;;;;;;;5094878;27;20056;-83
2022/10/24 13:46:42;;;;;;;8.88;2.05;;;;;;;;;;5095867;27;20102;-83
2022/10/24 13:49:15;;;;;;;7.43;2.30;;;;;;;;;;5105388;28;21525;-83
2022/10/24 13:51:43;;;;;;;8.65;2.30;;;;;;;;;;5123591;27;20052;-82
2022/10/24 13:54:23;;;;;;;7.93;2.05;;;;;;;;;;5100854;27;20063;-82
2022/10/24 13:56:49;;;;;;;9.80;1.77;;;;;;;;;;5112669;27;20052;-82
2022/10/24 13:59:48;;;;;;;10.25;2.08;;;;;;;;;;5115359;27;20052;-82
2022/10/24 14:02:19;;;;;;;8.93;2.15;;;;;;;;;;5048748;27;20068;-82
2022/10/24 14:04:46;;;;;;;7.97;2.42;;;;;;;;;;5105954;28;20056;-82
2022/10/24 14:07:17;;;;;;;11.88;2.67;;;;;;;;;;5099364;27;20052;-82
2022/10/24 14:09:51;;;;;;;9.80;2.30;;;;;;;;;;5107548;27;20039;-82
2022/10/24 14:12:18;;;;;;;9.40;2.35;;;;;;;;;;5092811;28;20117;-82
2022/10/24 14:14:46;;;;;;;9.05;2.20;;;;;;;;;;5110326;27;20064;-83
2022/10/24 14:17:18;;;;;;;8.48;2.20;;;;;;;;;;5110927;28;20117;-82
2022/10/24 14:19:53;;;;;;;6.18;2.03;;;;;;;;;;5113152;28;20075;-82
2022/10/24 14:22:26;;;;;;;5.38;1.88;;;;;;;;;;5110355;27;20511;-82
2022/10/24 14:24:53;;;;;;;9.00;1.70;;;;;;;;;;5125408;27;20043;-82
2022/10/24 14:27:19;;;;;;;11.20;2.00;;;;;;;;;;5110191;27;20106;-82
2022/10/24 14:29:53;;;;;;;12.65;1.77;;;;;;;;;;5101387;28;20056;-82
2022/10/24 14:32:19;;;;;;;6.22;1.80;;;;;;;;;;5101127;27;20040;-82
2022/10/24 14:34:46;;;;;;;6.20;1.70;;;;;;;;;;5112315;27;20048;-82
2022/10/24 14:37:14;;;;;;;8.48;2.20;;;;;;;;;;5113858;27;20150;-83
2022/10/24 14:39:41;;;;;;;7.28;1.63;;;;;;;;;;5105643;27;20061;-82
2022/10/24 14:42:13;;;;;;;9.30;1.88;;;;;;;;;;5098754;28;20056;-82
2022/10/24 14:44:40;;;;;;;13.05;2.05;;;;;;;;;;5106133;28;20053;-82
2022/10/24 14:47:20;;;;;;;6.20;1.77;;;;;;;;;;5114683;27;20052;-82
2022/10/24 14:49:47;;;;;;;11.60;3.72;;;;;;;;;;5103745;28;20056;-82
2022/10/24 14:52:13;;;;;;;9.07;2.40;;;;;;;;;;5109725;27;20206;-82
2022/10/24 14:54:41;;;;;;;10.52;3.20;;;;;;;;;;5102480;27;20779;-82
2022/10/24 14:57:15;;;;;;;9.23;3.97;;;;;;;;;;5118292;28;20055;-82
2022/10/24 14:59:43;;;;;;;14.73;5.90;;;;;;;;;;5111695;27;20048;-82
2022/10/24 15:02:20;;;;;;;9.20;2.63;;;;;;;;;;5111063;27;20060;-83